sensor_id;sensor_type;location;lat;lon;timestamp;pressure;altitude;pressure_sealevel;temperature;humidity
48553;BME280;34335;51.566;6.994;2023-08-30T00:00:50;100263.78;;;15.86;100.00
48553;BME280;34335;51.566;6.994;2023-08-30T00:03:15;100261.34;;;15.79;100.00
48553;BME280;34335;51.566;6.994;2023-08-30T00:05:41;100263.19;;;15.75;100.00
48553;BME280;34335;51.566;6.994;2023-08-30T00:08:07;100274.69;;;15.71;100.00
48553;BME280;34335;51.566;6.994;2023-08-30T00:10:33;100267.00;;;15.65;100.00
48553;BME280;34335;51.566;6.994;2023-08-30T00:12:58;100270.63;;;15.61;100.00
48553;BME280;34335;51.566;6.994;2023-08-30T00:15:24;100262.03;;;15.55;100.00
48553;BME280;34335;51.566;6.994;2023-08-30T00:17:49;100263.06;;;15.50;100.00
48553;BME280;34335;51.566;6.994;2023-08-30T00:20:16;100259.72;;;15.45;100.00
48553;BME280;34335;51.566;6.994;2023-08-30T00:22:42;100256.41;;;15.38;100.00
48553;BME280;34335;51.566;6.994;2023-08-30T00:25:08;100263.50;;;15.34;100.00
48553;BME280;34335;51.566;6.994;2023-08-30T00:27:33;100257.53;;;15.29;100.00
48553;BME280;34335;51.566;6.994;2023-08-30T00:29:58;100261.19;;;15.23;100.00
48553;BME280;34335;51.566;6.994;2023-08-30T00:32:24;100258.72;;;15.17;100.00
48553;BME280;34335;51.566;6.994;2023-08-30T00:34:52;100261.50;;;15.11;100.00
48553;BME280;34335;51.566;6.994;2023-08-30T00:37:17;100260.75;;;15.06;100.00
48553;BME280;34335;51.566;6.994;2023-08-30T00:39:43;100264.38;;;15.02;100.00
48553;BME280;34335;51.566;6.994;2023-08-30T00:42:08;100260.28;;;14.91;100.00
48553;BME280;34335;51.566;6.994;2023-08-30T00:44:34;100254.22;;;14.89;100.00
48553;BME280;34335;51.566;6.994;2023-08-30T00:47:01;100257.81;;;14.85;100.00
48553;BME280;34335;51.566;6.994;2023-08-30T00:49:27;100250.09;;;14.80;100.00
48553;BME280;34335;51.566;6.994;2023-08-30T00:51:54;100252.78;;;14.77;100.00
48553;BME280;34335;51.566;6.994;2023-08-30T00:54:19;100245.03;;;14.73;100.00
48553;BME280;34335;51.566;6.994;2023-08-30T00:56:46;100250.41;;;14.68;100.00
48553;BME280;34335;51.566;6.994;2023-08-30T00:59:12;100245.19;;;14.65;100.00
48553;BME280;34335;51.566;6.994;2023-08-30T01:01:38;100244.41;;;14.61;100.00
48553;BME280;34335;51.566;6.994;2023-08-30T01:04:04;100246.31;;;14.56;100.00
48553;BME280;34335;51.566;6.994;2023-08-30T01:06:29;100236.84;;;14.51;100.00
48553;BME280;34335;51.566;6.994;2023-08-30T01:08:55;100238.69;;;14.47;100.00
48553;BME280;34335;51.566;6.994;2023-08-30T01:11:48;100234.41;;;14.43;100.00
48553;BME280;34335;51.566;6.994;2023-08-30T01:14:18;100233.69;;;14.38;100.00
48553;BME280;34335;51.566;6.994;2023-08-30T01:16:45;100227.63;;;14.34;100.00
48553;BME280;34335;51.566;6.994;2023-08-30T01:21:56;100216.50;;;14.26;100.00
48553;BME280;34335;51.566;6.994;2023-08-30T01:27:15;100214.09;;;14.16;100.00
48553;BME280;34335;51.566;6.994;2023-08-30T01:29:43;100220.38;;;14.09;100.00
48553;BME280;34335;51.566;6.994;2023-08-30T01:32:10;100220.59;;;14.00;100.00
48553;BME280;34335;51.566;6.994;2023-08-30T01:34:37;100219.88;;;13.93;100.00
48553;BME280;34335;51.566;6.994;2023-08-30T01:37:05;100212.91;;;13.94;100.00
48553;BME280;34335;51.566;6.994;2023-08-30T01:39:31;100216.44;;;13.91;100.00
48553;BME280;34335;51.566;6.994;2023-08-30T01:41:57;100219.22;;;13.83;100.00
48553;BME280;34335;51.566;6.994;2023-08-30T01:44:28;100217.53;;;13.81;100.00
48553;BME280;34335;51.566;6.994;2023-08-30T01:46:56;100212.38;;;13.78;100.00
48553;BME280;34335;51.566;6.994;2023-08-30T01:49:23;100213.28;;;13.77;100.00
48553;BME280;34335;51.566;6.994;2023-08-30T01:51:50;100215.06;;;13.75;100.00
48553;BME280;34335;51.566;6.994;2023-08-30T01:54:18;100213.38;;;13.72;100.00
48553;BME280;34335;51.566;6.994;2023-08-30T01:56:44;100215.16;;;13.70;100.00
48553;BME280;34335;51.566;6.994;2023-08-30T01:59:10;100211.75;;;13.66;100.00
48553;BME280;34335;51.566;6.994;2023-08-30T02:01:35;100216.84;;;13.73;100.00
48553;BME280;34335;51.566;6.994;2023-08-30T02:04:00;100219.66;;;13.63;100.00
48553;BME280;34335;51.566;6.994;2023-08-30T02:06:34;100222.34;;;13.60;100.00
48553;BME280;34335;51.566;6.994;2023-08-30T02:11:31;100227.69;;;13.54;100.00
48553;BME280;34335;51.566;6.994;2023-08-30T02:13:58;100229.47;;;13.52;100.00
48553;BME280;34335;51.566;6.994;2023-08-30T02:16:25;100228.66;;;13.50;100.00
48553;BME280;34335;51.566;6.994;2023-08-30T02:18:53;100226.03;;;13.50;100.00
48553;BME280;34335;51.566;6.994;2023-08-30T02:21:18;100224.13;;;13.58;100.00
48553;BME280;34335;51.566;6.994;2023-08-30T02:23:49;100218.13;;;13.53;100.00
48553;BME280;34335;51.566;6.994;2023-08-30T02:26:15;100224.38;;;13.46;100.00
48553;BME280;34335;51.566;6.994;2023-08-30T02:28:40;100222.66;;;13.45;100.00
48553;BME280;34335;51.566;6.994;2023-08-30T02:31:05;100215.69;;;13.45;100.00
48553;BME280;34335;51.566;6.994;2023-08-30T02:33:31;100214.84;;;13.43;100.00
48553;BME280;34335;51.566;6.994;2023-08-30T02:35:56;100213.06;;;13.45;100.00
48553;BME280;34335;51.566;6.994;2023-08-30T02:38:21;100216.47;;;13.49;100.00
48553;BME280;34335;51.566;6.994;2023-08-30T02:40:47;100220.63;;;13.58;100.00
48553;BME280;34335;51.566;6.994;2023-08-30T02:43:12;100219.16;;;13.46;100.00
48553;BME280;34335;51.566;6.994;2023-08-30T02:45:37;100222.69;;;13.43;100.00
48553;BME280;34335;51.566;6.994;2023-08-30T02:48:03;100220.81;;;13.50;100.00
48553;BME280;34335;51.566;6.994;2023-08-30T02:50:29;100215.69;;;13.44;100.00
48553;BME280;34335;51.566;6.994;2023-08-30T02:52:54;100208.78;;;13.41;100.00
48553;BME280;34335;51.566;6.994;2023-08-30T02:55:19;100197.50;;;13.39;100.00
48553;BME280;34335;51.566;6.994;2023-08-30T02:57:45;100193.19;;;13.36;100.00
48553;BME280;34335;51.566;6.994;2023-08-30T03:00:12;100191.41;;;13.37;100.00
48553;BME280;34335;51.566;6.994;2023-08-30T03:02:37;100194.97;;;13.34;100.00
48553;BME280;34335;51.566;6.994;2023-08-30T03:05:03;100188.91;;;13.34;100.00
48553;BME280;34335;51.566;6.994;2023-08-30T03:07:29;100184.53;;;13.34;100.00
48553;BME280;34335;51.566;6.994;2023-08-30T03:09:55;100187.22;;;13.30;100.00
48553;BME280;34335;51.566;6.994;2023-08-30T03:12:20;100189.94;;;13.25;100.00
48553;BME280;34335;51.566;6.994;2023-08-30T03:14:46;100189.09;;;13.24;100.00
48553;BME280;34335;51.566;6.994;2023-08-30T03:17:11;100187.41;;;13.22;100.00
48553;BME280;34335;51.566;6.994;2023-08-30T03:19:37;100194.41;;;13.18;100.00
48553;BME280;34335;51.566;6.994;2023-08-30T03:22:02;100184.00;;;13.17;100.00
48553;BME280;34335;51.566;6.994;2023-08-30T03:24:28;100183.16;;;13.15;100.00
48553;BME280;34335;51.566;6.994;2023-08-30T03:26:53;100186.66;;;13.14;100.00
48553;BME280;34335;51.566;6.994;2023-08-30T03:29:18;100186.66;;;13.15;100.00
48553;BME280;34335;51.566;6.994;2023-08-30T03:31:43;100185.59;;;13.24;100.00
48553;BME280;34335;51.566;6.994;2023-08-30T03:34:09;100187.50;;;13.17;100.00
48553;BME280;34335;51.566;6.994;2023-08-30T03:36:34;100177.00;;;13.19;100.00
48553;BME280;34335;51.566;6.994;2023-08-30T03:39:00;100174.53;;;13.13;100.00
48553;BME280;34335;51.566;6.994;2023-08-30T03:41:25;100176.09;;;13.21;100.00
48553;BME280;34335;51.566;6.994;2023-08-30T03:43:50;100172.78;;;13.13;100.00
48553;BME280;34335;51.566;6.994;2023-08-30T03:46:16;100168.47;;;13.11;100.00
48553;BME280;34335;51.566;6.994;2023-08-30T03:48:41;100172.72;;;13.16;100.00
48553;BME280;34335;51.566;6.994;2023-08-30T03:51:06;100168.44;;;13.12;100.00
48553;BME280;34335;51.566;6.994;2023-08-30T03:53:32;100165.78;;;13.14;100.00
48553;BME280;34335;51.566;6.994;2023-08-30T03:55:57;100170.22;;;13.10;100.00
48553;BME280;34335;51.566;6.994;2023-08-30T03:58:23;100161.56;;;13.08;100.00
48553;BME280;34335;51.566;6.994;2023-08-30T04:00:48;100168.53;;;13.07;100.00
48553;BME280;34335;51.566;6.994;2023-08-30T04:03:14;100164.19;;;13.08;100.00
48553;BME280;34335;51.566;6.994;2023-08-30T04:05:40;100165.09;;;13.05;100.00
48553;BME280;34335;51.566;6.994;2023-08-30T04:08:07;100162.56;;;13.02;100.00
48553;BME280;34335;51.566;6.994;2023-08-30T04:10:37;100157.38;;;12.99;100.00
48553;BME280;34335;51.566;6.994;2023-08-30T04:13:03;100152.22;;;12.96;100.00
48553;BME280;34335;51.566;6.994;2023-08-30T04:15:29;100155.66;;;12.98;100.00
48553;BME280;34335;51.566;6.994;2023-08-30T04:17:54;100143.53;;;12.94;100.00
48553;BME280;34335;51.566;6.994;2023-08-30T04:20:19;100148.84;;;12.91;100.00
48553;BME280;34335;51.566;6.994;2023-08-30T04:22:45;100136.69;;;12.90;100.00
48553;BME280;34335;51.566;6.994;2023-08-30T04:25:10;100143.69;;;12.88;100.00
48553;BME280;34335;51.566;6.994;2023-08-30T04:27:35;100141.13;;;12.86;100.00
48553;BME280;34335;51.566;6.994;2023-08-30T04:30:02;100141.16;;;12.83;100.00
48553;BME280;34335;51.566;6.994;2023-08-30T04:32:27;100136.00;;;12.80;100.00
48553;BME280;34335;51.566;6.994;2023-08-30T04:34:53;100133.41;;;12.78;100.00
48553;BME280;34335;51.566;6.994;2023-08-30T04:37:18;100129.69;;;12.92;100.00
48553;BME280;34335;51.566;6.994;2023-08-30T04:39:47;100124.66;;;12.81;100.00
48553;BME280;34335;51.566;6.994;2023-08-30T04:42:13;100123.81;;;12.81;100.00
48553;BME280;34335;51.566;6.994;2023-08-30T04:44:39;100117.69;;;12.83;100.00
48553;BME280;34335;51.566;6.994;2023-08-30T04:47:04;100120.25;;;12.85;100.00
48553;BME280;34335;51.566;6.994;2023-08-30T04:49:30;100122.75;;;12.91;100.00
48553;BME280;34335;51.566;6.994;2023-08-30T04:51:55;100126.25;;;12.90;100.00
48553;BME280;34335;51.566;6.994;2023-08-30T04:54:21;100126.19;;;12.93;100.00
48553;BME280;34335;51.566;6.994;2023-08-30T04:56:46;100122.97;;;12.78;100.00
48553;BME280;34335;51.566;6.994;2023-08-30T04:59:12;100116.09;;;12.74;100.00
48553;BME280;34335;51.566;6.994;2023-08-30T05:01:37;100118.00;;;12.68;100.00
48553;BME280;34335;51.566;6.994;2023-08-30T05:04:04;100118.88;;;12.65;100.00
48553;BME280;34335;51.566;6.994;2023-08-30T05:06:31;100107.63;;;12.63;100.00
48553;BME280;34335;51.566;6.994;2023-08-30T05:08:56;100108.47;;;12.63;100.00
48553;BME280;34335;51.566;6.994;2023-08-30T05:11:23;100101.63;;;12.59;100.00
48553;BME280;34335;51.566;6.994;2023-08-30T05:13:49;100097.38;;;12.54;100.00
48553;BME280;34335;51.566;6.994;2023-08-30T05:16:14;100098.34;;;12.48;100.00
48553;BME280;34335;51.566;6.994;2023-08-30T05:18:40;100091.41;;;12.47;100.00
48553;BME280;34335;51.566;6.994;2023-08-30T05:21:05;100092.25;;;12.47;100.00
48553;BME280;34335;51.566;6.994;2023-08-30T05:23:31;100093.16;;;12.46;100.00
48553;BME280;34335;51.566;6.994;2023-08-30T05:25:57;100087.88;;;12.50;100.00
48553;BME280;34335;51.566;6.994;2023-08-30T05:28:22;100081.03;;;12.44;100.00
48553;BME280;34335;51.566;6.994;2023-08-30T05:30:48;100075.53;;;12.58;100.00
48553;BME280;34335;51.566;6.994;2023-08-30T05:33:13;100075.81;;;12.45;100.00
48553;BME280;34335;51.566;6.994;2023-08-30T05:35:39;100076.44;;;12.58;100.00
48553;BME280;34335;51.566;6.994;2023-08-30T05:38:04;100076.56;;;12.51;100.00
48553;BME280;34335;51.566;6.994;2023-08-30T05:40:30;100067.16;;;12.43;100.00
48553;BME280;34335;51.566;6.994;2023-08-30T05:42:56;100068.78;;;12.47;100.00
48553;BME280;34335;51.566;6.994;2023-08-30T05:45:21;100074.00;;;12.47;100.00
48553;BME280;34335;51.566;6.994;2023-08-30T05:47:47;100067.09;;;12.45;100.00
48553;BME280;34335;51.566;6.994;2023-08-30T05:50:13;100067.16;;;12.43;100.00
48553;BME280;34335;51.566;6.994;2023-08-30T05:52:38;100065.38;;;12.45;100.00
48553;BME280;34335;51.566;6.994;2023-08-30T05:55:07;100060.28;;;12.38;100.00
48553;BME280;34335;51.566;6.994;2023-08-30T05:57:33;100058.41;;;12.46;100.00
48553;BME280;34335;51.566;6.994;2023-08-30T05:59:59;100052.88;;;12.61;100.00
48553;BME280;34335;51.566;6.994;2023-08-30T06:02:25;100048.72;;;12.53;100.00
48553;BME280;34335;51.566;6.994;2023-08-30T06:04:50;100049.19;;;12.73;100.00
48553;BME280;34335;51.566;6.994;2023-08-30T06:07:16;100049.59;;;12.94;100.00
48553;BME280;34335;51.566;6.994;2023-08-30T06:09:42;100051.97;;;12.64;100.00
48553;BME280;34335;51.566;6.994;2023-08-30T06:12:08;100051.94;;;12.66;100.00
48553;BME280;34335;51.566;6.994;2023-08-30T06:14:33;100041.78;;;12.52;100.00
48553;BME280;34335;51.566;6.994;2023-08-30T06:16:59;100042.47;;;12.60;100.00
48553;BME280;34335;51.566;6.994;2023-08-30T06:19:24;100044.84;;;12.72;100.00
48553;BME280;34335;51.566;6.994;2023-08-30T06:21:50;100043.56;;;12.92;100.00
48553;BME280;34335;51.566;6.994;2023-08-30T06:24:15;100046.03;;;12.98;100.00
48553;BME280;34335;51.566;6.994;2023-08-30T06:26:41;100038.56;;;13.22;100.00
48553;BME280;34335;51.566;6.994;2023-08-30T06:29:06;100034.06;;;12.88;100.00
48553;BME280;34335;51.566;6.994;2023-08-30T06:31:32;100035.59;;;13.39;100.00
48553;BME280;34335;51.566;6.994;2023-08-30T06:33:57;100031.84;;;13.12;100.00
48553;BME280;34335;51.566;6.994;2023-08-30T06:36:23;100036.56;;;13.33;100.00
48553;BME280;34335;51.566;6.994;2023-08-30T06:38:49;100028.13;;;13.22;100.00
48553;BME280;34335;51.566;6.994;2023-08-30T06:41:14;100022.53;;;13.37;100.00
48553;BME280;34335;51.566;6.994;2023-08-30T06:43:40;100020.56;;;13.49;100.00
48553;BME280;34335;51.566;6.994;2023-08-30T06:46:05;100023.69;;;13.63;100.00
48553;BME280;34335;51.566;6.994;2023-08-30T06:48:31;100015.19;;;13.55;100.00
48553;BME280;34335;51.566;6.994;2023-08-30T06:50:59;100026.84;;;13.42;100.00
48553;BME280;34335;51.566;6.994;2023-08-30T06:53:26;100026.63;;;13.85;100.00
48553;BME280;34335;51.566;6.994;2023-08-30T06:56:01;100018.75;;;13.87;100.00
48553;BME280;34335;51.566;6.994;2023-08-30T06:58:27;100020.00;;;13.72;100.00
48553;BME280;34335;51.566;6.994;2023-08-30T07:00:53;100021.28;;;13.90;100.00
48553;BME280;34335;51.566;6.994;2023-08-30T07:03:19;100020.22;;;14.30;100.00
48553;BME280;34335;51.566;6.994;2023-08-30T07:05:44;100020.06;;;14.03;100.00
48553;BME280;34335;51.566;6.994;2023-08-30T07:08:13;100019.47;;;14.27;100.00
48553;BME280;34335;51.566;6.994;2023-08-30T07:10:39;100014.53;;;14.47;100.00
48553;BME280;34335;51.566;6.994;2023-08-30T07:13:04;100012.09;;;14.41;100.00
48553;BME280;34335;51.566;6.994;2023-08-30T07:15:36;100011.34;;;14.69;100.00
48553;BME280;34335;51.566;6.994;2023-08-30T10:38:04;99967.94;;;16.48;100.00
48553;BME280;34335;51.566;6.994;2023-08-30T10:40:30;99969.97;;;16.16;100.00
48553;BME280;34335;51.566;6.994;2023-08-30T10:42:59;99970.38;;;16.29;100.00
48553;BME280;34335;51.566;6.994;2023-08-30T10:45:25;99965.91;;;16.31;100.00
48553;BME280;34335;51.566;6.994;2023-08-30T10:47:54;99961.81;;;16.24;100.00
48553;BME280;34335;51.566;6.994;2023-08-30T10:50:30;99965.28;;;16.25;100.00
48553;BME280;34335;51.566;6.994;2023-08-30T10:52:56;99971.50;;;16.22;100.00
48553;BME280;34335;51.566;6.994;2023-08-30T10:55:22;99970.09;;;16.37;100.00
48553;BME280;34335;51.566;6.994;2023-08-30T10:57:58;99974.28;;;16.17;100.00
48553;BME280;34335;51.566;6.994;2023-08-30T11:00:24;99970.13;;;16.12;100.00
48553;BME280;34335;51.566;6.994;2023-08-30T11:02:51;99970.84;;;16.41;100.00
48553;BME280;34335;51.566;6.994;2023-08-30T11:05:18;99962.25;;;16.12;100.00
48553;BME280;34335;51.566;6.994;2023-08-30T11:07:44;99966.22;;;15.98;100.00
48553;BME280;34335;51.566;6.994;2023-08-30T11:10:09;99960.19;;;15.96;100.00
48553;BME280;34335;51.566;6.994;2023-08-30T11:12:35;99958.47;;;15.95;100.00
48553;BME280;34335;51.566;6.994;2023-08-30T11:15:00;99963.00;;;16.15;100.00
48553;BME280;34335;51.566;6.994;2023-08-30T11:17:27;99956.19;;;15.84;100.00
48553;BME280;34335;51.566;6.994;2023-08-30T11:20:08;99955.44;;;15.81;100.00
48553;BME280;34335;51.566;6.994;2023-08-30T11:22:44;99954.78;;;16.01;100.00
48553;BME280;34335;51.566;6.994;2023-08-30T11:25:11;99956.91;;;15.89;100.00
48553;BME280;34335;51.566;6.994;2023-08-30T11:27:39;99954.16;;;15.93;100.00
48553;BME280;34335;51.566;6.994;2023-08-30T11:30:09;99957.81;;;15.88;100.00
48553;BME280;34335;51.566;6.994;2023-08-30T11:32:36;99956.47;;;16.02;100.00
48553;BME280;34335;51.566;6.994;2023-08-30T11:35:02;99964.47;;;15.99;100.00
48553;BME280;34335;51.566;6.994;2023-08-30T11:37:28;99957.41;;;16.01;100.00
48553;BME280;34335;51.566;6.994;2023-08-30T11:39:55;99952.75;;;15.82;100.00
48553;BME280;34335;51.566;6.994;2023-08-30T11:42:21;99957.31;;;15.77;100.00
48553;BME280;34335;51.566;6.994;2023-08-30T11:44:46;99949.97;;;15.88;100.00
48553;BME280;34335;51.566;6.994;2023-08-30T11:47:20;99952.75;;;15.82;100.00
48553;BME280;34335;51.566;6.994;2023-08-30T11:49:48;99947.09;;;15.95;100.00
48553;BME280;34335;51.566;6.994;2023-08-30T11:52:14;99957.13;;;15.56;100.00
48553;BME280;34335;51.566;6.994;2023-08-30T11:54:39;99949.19;;;15.33;100.00
48553;BME280;34335;51.566;6.994;2023-08-30T11:57:05;99950.91;;;15.59;100.00
48553;BME280;34335;51.566;6.994;2023-08-30T11:59:34;99950.56;;;15.70;100.00
48553;BME280;34335;51.566;6.994;2023-08-30T12:02:00;99949.25;;;15.56;100.00
48553;BME280;34335;51.566;6.994;2023-08-30T12:04:25;99957.53;;;15.71;100.00
48553;BME280;34335;51.566;6.994;2023-08-30T12:06:51;99949.41;;;15.52;100.00
48553;BME280;34335;51.566;6.994;2023-08-30T12:09:17;99956.63;;;15.72;100.00
48553;BME280;34335;51.566;6.994;2023-08-30T12:11:42;99952.88;;;15.79;100.00
48553;BME280;34335;51.566;6.994;2023-08-30T12:14:07;99965.31;;;15.72;100.00
48553;BME280;34335;51.566;6.994;2023-08-30T12:16:32;99961.97;;;15.69;100.00
48553;BME280;34335;51.566;6.994;2023-08-30T12:19:07;99952.91;;;15.78;100.00
48553;BME280;34335;51.566;6.994;2023-08-30T12:21:39;99944.19;;;15.77;100.00
48553;BME280;34335;51.566;6.994;2023-08-30T12:24:04;99946.13;;;15.97;100.00
48553;BME280;34335;51.566;6.994;2023-08-30T12:26:33;99947.00;;;15.98;100.00
48553;BME280;34335;51.566;6.994;2023-08-30T12:28:58;99952.34;;;15.95;100.00
48553;BME280;34335;51.566;6.994;2023-08-30T12:31:23;99951.16;;;15.78;100.00
48553;BME280;34335;51.566;6.994;2023-08-30T12:33:49;99946.19;;;15.96;100.00
48553;BME280;34335;51.566;6.994;2023-08-30T12:36:14;99943.56;;;15.96;100.00
48553;BME280;34335;51.566;6.994;2023-08-30T12:38:39;99941.41;;;15.82;100.00
48553;BME280;34335;51.566;6.994;2023-08-30T12:41:05;99933.19;;;15.67;100.00
48553;BME280;34335;51.566;6.994;2023-08-30T12:43:30;99926.94;;;15.97;100.00
48553;BME280;34335;51.566;6.994;2023-08-30T12:45:55;99922.94;;;15.86;100.00
48553;BME280;34335;51.566;6.994;2023-08-30T12:48:20;99917.44;;;15.94;100.00
48553;BME280;34335;51.566;6.994;2023-08-30T12:50:47;99915.47;;;15.99;100.00
48553;BME280;34335;51.566;6.994;2023-08-30T12:53:13;99916.91;;;15.83;100.00
48553;BME280;34335;51.566;6.994;2023-08-30T12:55:38;99905.47;;;16.11;100.00
48553;BME280;34335;51.566;6.994;2023-08-30T12:58:04;99908.84;;;15.89;100.00
48553;BME280;34335;51.566;6.994;2023-08-30T13:00:29;99906.78;;;15.99;100.00
48553;BME280;34335;51.566;6.994;2023-08-30T13:02:54;99910.78;;;16.09;100.00
48553;BME280;34335;51.566;6.994;2023-08-30T13:05:20;99913.03;;;15.95;100.00
48553;BME280;34335;51.566;6.994;2023-08-30T13:07:45;99917.81;;;15.82;100.00
48553;BME280;34335;51.566;6.994;2023-08-30T13:10:11;99917.47;;;15.93;100.00
48553;BME280;34335;51.566;6.994;2023-08-30T13:12:36;99921.97;;;15.89;100.00
48553;BME280;34335;51.566;6.994;2023-08-30T13:15:05;99914.66;;;15.97;100.00
48553;BME280;34335;51.566;6.994;2023-08-30T13:17:31;99917.34;;;15.96;100.00
48553;BME280;34335;51.566;6.994;2023-08-30T13:19:56;99929.66;;;15.94;100.00
48553;BME280;34335;51.566;6.994;2023-08-30T13:22:22;99929.28;;;15.79;100.00
48553;BME280;34335;51.566;6.994;2023-08-30T13:24:47;99925.31;;;15.67;100.00
48553;BME280;34335;51.566;6.994;2023-08-30T13:27:12;99916.88;;;15.84;100.00
48553;BME280;34335;51.566;6.994;2023-08-30T13:29:37;99916.84;;;16.10;100.00
48553;BME280;34335;51.566;6.994;2023-08-30T13:32:03;99923.31;;;16.01;100.00
48553;BME280;34335;51.566;6.994;2023-08-30T13:34:28;99916.44;;;15.97;100.00
48553;BME280;34335;51.566;6.994;2023-08-30T13:36:53;99903.00;;;16.06;100.00
48553;BME280;34335;51.566;6.994;2023-08-30T13:39:19;99909.31;;;15.75;100.00
48553;BME280;34335;51.566;6.994;2023-08-30T13:41:47;99918.97;;;15.73;100.00
48553;BME280;34335;51.566;6.994;2023-08-30T13:44:13;99931.25;;;15.72;100.00
48553;BME280;34335;51.566;6.994;2023-08-30T13:46:38;99941.47;;;15.80;100.00
48553;BME280;34335;51.566;6.994;2023-08-30T13:49:04;99932.06;;;15.74;100.00
48553;BME280;34335;51.566;6.994;2023-08-30T13:51:29;99935.31;;;15.56;100.00
48553;BME280;34335;51.566;6.994;2023-08-30T13:53:54;99928.78;;;15.68;100.00
48553;BME280;34335;51.566;6.994;2023-08-30T13:56:19;99936.66;;;15.68;100.00
48553;BME280;34335;51.566;6.994;2023-08-30T13:58:45;99937.75;;;15.87;100.00
48553;BME280;34335;51.566;6.994;2023-08-30T14:01:11;99936.88;;;15.62;100.00
48553;BME280;34335;51.566;6.994;2023-08-30T14:03:37;99935.81;;;15.67;100.00
48553;BME280;34335;51.566;6.994;2023-08-30T14:06:02;99929.00;;;15.62;100.00
48553;BME280;34335;51.566;6.994;2023-08-30T14:08:28;99932.31;;;15.67;100.00
48553;BME280;34335;51.566;6.994;2023-08-30T14:10:54;99920.84;;;15.69;100.00
48553;BME280;34335;51.566;6.994;2023-08-30T14:13:20;99918.88;;;15.76;100.00
48553;BME280;34335;51.566;6.994;2023-08-30T14:15:45;99926.97;;;15.70;100.00
48553;BME280;34335;51.566;6.994;2023-08-30T14:18:10;99924.75;;;15.84;100.00
48553;BME280;34335;51.566;6.994;2023-08-30T14:20:36;99925.47;;;15.89;100.00
48553;BME280;34335;51.566;6.994;2023-08-30T14:23:01;99921.50;;;15.76;100.00
48553;BME280;34335;51.566;6.994;2023-08-30T14:25:26;99926.47;;;15.58;100.00
48553;BME280;34335;51.566;6.994;2023-08-30T14:27:51;99922.88;;;15.63;100.00
48553;BME280;34335;51.566;6.994;2023-08-30T14:30:17;99917.00;;;15.54;100.00
48553;BME280;34335;51.566;6.994;2023-08-30T14:32:42;99928.69;;;15.71;100.00
48553;BME280;34335;51.566;6.994;2023-08-30T14:35:08;99932.78;;;15.53;100.00
48553;BME280;34335;51.566;6.994;2023-08-30T14:37:33;99932.03;;;15.49;100.00
48553;BME280;34335;51.566;6.994;2023-08-30T14:39:58;99933.53;;;15.56;100.00
48553;BME280;34335;51.566;6.994;2023-08-30T14:42:24;99936.16;;;15.56;100.00
48553;BME280;34335;51.566;6.994;2023-08-30T14:44:50;99937.81;;;15.34;100.00
48553;BME280;34335;51.566;6.994;2023-08-30T14:47:15;99929.50;;;15.46;100.00
48553;BME280;34335;51.566;6.994;2023-08-30T14:49:40;99937.03;;;15.30;100.00
48553;BME280;34335;51.566;6.994;2023-08-30T14:52:06;99934.06;;;15.41;100.00
48553;BME280;34335;51.566;6.994;2023-08-30T14:54:31;99940.91;;;15.45;100.00
48553;BME280;34335;51.566;6.994;2023-08-30T14:56:56;99937.88;;;15.57;100.00
48553;BME280;34335;51.566;6.994;2023-08-30T14:59:21;99931.72;;;15.58;100.00
48553;BME280;34335;51.566;6.994;2023-08-30T15:01:47;99926.00;;;15.47;100.00
48553;BME280;34335;51.566;6.994;2023-08-30T15:04:12;99931.44;;;15.41;100.00
48553;BME280;34335;51.566;6.994;2023-08-30T15:06:37;99941.50;;;15.26;100.00
48553;BME280;34335;51.566;6.994;2023-08-30T15:09:03;99939.41;;;15.38;100.00
48553;BME280;34335;51.566;6.994;2023-08-30T15:11:28;99934.97;;;15.40;100.00
48553;BME280;34335;51.566;6.994;2023-08-30T15:13:53;99943.44;;;15.48;100.00
48553;BME280;34335;51.566;6.994;2023-08-30T15:16:18;99930.56;;;15.40;100.00
48553;BME280;34335;51.566;6.994;2023-08-30T15:18:44;99940.75;;;15.50;100.00
48553;BME280;34335;51.566;6.994;2023-08-30T15:21:09;99926.19;;;15.41;100.00
48553;BME280;34335;51.566;6.994;2023-08-30T15:23:34;99931.63;;;15.35;100.00
48553;BME280;34335;51.566;6.994;2023-08-30T15:25:59;99930.44;;;15.18;100.00
48553;BME280;34335;51.566;6.994;2023-08-30T15:28:25;99929.22;;;15.02;100.00
48553;BME280;34335;51.566;6.994;2023-08-30T15:30:50;99924.34;;;15.18;100.00
48553;BME280;34335;51.566;6.994;2023-08-30T15:33:15;99932.53;;;15.07;100.00
48553;BME280;34335;51.566;6.994;2023-08-30T15:35:41;99926.97;;;14.89;100.00
48553;BME280;34335;51.566;6.994;2023-08-30T15:38:07;99934.06;;;15.14;100.00
48553;BME280;34335;51.566;6.994;2023-08-30T15:40:33;99940.31;;;15.37;100.00
48553;BME280;34335;51.566;6.994;2023-08-30T15:42:59;99937.50;;;15.43;100.00
48553;BME280;34335;51.566;6.994;2023-08-30T15:45:24;99957.81;;;15.35;100.00
48553;BME280;34335;51.566;6.994;2023-08-30T15:47:49;99944.31;;;15.47;100.00
48553;BME280;34335;51.566;6.994;2023-08-30T15:50:14;99941.09;;;15.39;100.00
48553;BME280;34335;51.566;6.994;2023-08-30T15:52:40;99923.38;;;15.47;100.00
48553;BME280;34335;51.566;6.994;2023-08-30T15:55:05;99928.13;;;15.61;100.00
48553;BME280;34335;51.566;6.994;2023-08-30T15:57:31;99930.50;;;15.69;100.00
48553;BME280;34335;51.566;6.994;2023-08-30T15:59:56;99926.84;;;15.73;100.00
48553;BME280;34335;51.566;6.994;2023-08-30T16:02:21;99923.56;;;15.93;100.00
48553;BME280;34335;51.566;6.994;2023-08-30T16:04:47;99918.03;;;15.76;100.00
48553;BME280;34335;51.566;6.994;2023-08-30T16:07:12;99924.66;;;15.87;100.00